KPZQ METAR Reports


Rogers City, Presque Isle County Airport, MI, United States (KPZQ) 45-24-25N 083-48-46W
Feb 21, 2019 - 09:55 AM EST / 2019.02.21 1455 UTC
Wind: from the W (260 degrees) at 14 MPH (12 KT) gusting to 18 MPH (16 KT):0
Visibility: 4 mile(s):0
Sky conditions: overcast
Weather: light snow
Temperature: 31.1 F (-0.5 C)
Windchill: 21 F (-6 C):1
Dew Point: 25.3 F (-3.7 C)
Relative Humidity: 78%
Pressure (altimeter): 29.88 in. Hg (1011 hPa)
ob: KPZQ 211455Z AUTO 26012G16KT 4SM -SN BKN021 OVC027 00/M04 A2988 RMK AO2 T10051037
cycle: 15

 

Rogers City METAR Meteogram

Weather Chart

Nearby METAR Reports

KPZQ - Rogers City, Michigan, USA
Distance from station: SSW 1mi, 2km
Updated: Thu, 21-Feb-2019 9:55am EST
Light snow, Overcast
Light snow, Overcast
 Wind from W
Wind: W 14 mph , 22 km/h, Gust: 18 mph , 30 km/h
Temperature: 32°F , 0°C
Wind Chill: 22°F , -6°C
Dew Point: 25°F , -4°C
Humidity: 75%
Barometer: 29.88 inHg , 1011.9 hPa
Summary: Light Snow
Clouds: Overcast
Visibility: 4 miles , 6 km
Cloud details: Mostly cloudy 2100 ft
Overcast 2700 ft
2019/02/21 14:55 KPZQ 211455Z AUTO 26012G16KT 4SM -SN BKN021 OVC027 00/M04 A2988 RMK AO2 T10051037
KAPN - Alpena, Michigan, USA
Distance from station: SSE 27mi, 43km
Updated: Thu, 21-Feb-2019 9:54am EST
Overcast
Overcast
 Wind from WSW
Wind: WSW 15 mph , 24 km/h, Gust: 25 mph , 41 km/h
Temperature: 34°F , 1°C
Wind Chill: 24°F , -4°C
Dew Point: 19°F , -7°C
Humidity: 56%
Barometer: 29.88 inHg , 1011.9 hPa
Clouds: Overcast
Visibility: 10 miles , 16 km
Cloud details: Overcast 4600 ft
2019/02/21 14:54 KAPN 211454Z AUTO 25013G22KT 10SM OVC046 01/M07 A2988 RMK AO2 PK WND 26030/1430 SLP127 T00061067 51031
 
KSLH - Cheboygan, Michigan, USA
Distance from station: WNW 38mi, 61km
Updated: Thu, 21-Feb-2019 9:55am EST
Light snow, Overcast
Light snow, Overcast
 Wind from W
Wind: W 12 mph , 19 km/h, Gust: 20 mph , 31 km/h
Temperature: 28°F , -2°C
Wind Chill: 18°F , -8°C
Dew Point: 27°F , -3°C
Humidity: 93%
Barometer: 29.87 inHg , 1011.5 hPa
Summary: Light Snow
Clouds: Overcast
Visibility: 1 1/4 miles , 2 km
Cloud details: Mostly cloudy 1500 ft
Overcast 2100 ft
2019/02/21 14:55 KSLH 211455Z AUTO 26010G17KT 1 1/4SM -SN BKN015 OVC021 M02/M03 A2987 RMK AO2 T10161033
KDRM - Drummond Is, Michigan, USA
Distance from station: N 40mi, 65km
Updated: Thu, 21-Feb-2019 9:55am EST
Partly cloudy
Partly cloudy
 Wind from WNW
Wind: WNW 9 mph , 15 km/h, Gust: 20 mph , 31 km/h
Temperature: 28°F , -2°C
Wind Chill: 19°F , -7°C
Dew Point: 21°F , -6°C
Humidity: 74%
Barometer: 29.85 inHg , 1010.8 hPa
Clouds: Partly cloudy
Visibility: 10 miles , 16 km
Cloud details: Partly cloudy 2000 ft
2019/02/21 14:55 KDRM 211455Z AUTO 29008G17KT 260V320 10SM SCT020 M02/M06 A2985 RMK AO2 T10221060
 
KPLN - Pellston, Michigan, USA
Distance from station: WNW 49mi, 79km
Updated: Thu, 21-Feb-2019 9:54am EST
Light snow, Mist, Overcast
Light snow, Mist, Overcast
 Wind from W
Wind: W 15 mph , 24 km/h, Gust: 30 mph , 48 km/h
Temperature: 28°F , -2°C
Wind Chill: 16°F , -9°C
Dew Point: 25°F , -4°C
Humidity: 86%
Barometer: 29.89 inHg , 1012.2 hPa
Summary: Light snow, Mist
Clouds: Overcast
Visibility: 1 mile , 2 km
Cloud details: Mostly cloudy 1400 ft
Overcast 2000 ft
2019/02/21 14:54 KPLN 211454Z AUTO 26013G26KT 1SM -SN BR BKN014 OVC020 M02/M04 A2989 RMK AO2 PK WND 28033/1434 SLP132 P0000 60000 T10221044 51039
KMCD - Mackinac Island, Michigan, USA
Distance from station: NW 50mi, 80km
Updated: Thu, 21-Feb-2019 9:56am EST
Overcast
Overcast
 Wind from W
Wind: W 17 mph , 28 km/h, Gust: 30 mph , 48 km/h
Temperature: 28°F , -2°C
Wind Chill: 16°F , -9°C
Dew Point: 25°F , -4°C
Humidity: 86%
Barometer: 29.86 inHg , 1011.2 hPa
Clouds: Overcast
Visibility: 7 miles , 11 km
Cloud details: Partly cloudy 1300 ft
Mostly cloudy 4100 ft
Overcast 4800 ft
2019/02/21 14:56 KMCD 211456Z AUTO 27015G26KT 7SM SCT013 BKN041 OVC048 M02/M04 A2986 RMK AO2 T10181038